sensor_id;sensor_type;location;lat;lon;timestamp;pressure;altitude;pressure_sealevel;temperature;humidity
50250;BME280;36133;42.522;27.456;2023-06-22T00:02:13;101395.63;;;23.33;65.67
50250;BME280;36133;42.522;27.456;2023-06-22T00:04:39;101396.69;;;23.10;66.81
50250;BME280;36133;42.522;27.456;2023-06-22T00:07:04;101373.03;;;22.92;67.36
50250;BME280;36133;42.522;27.456;2023-06-22T00:09:31;101442.00;;;23.19;67.67
50250;BME280;36133;42.522;27.456;2023-06-22T00:11:56;101426.72;;;23.50;66.84
50250;BME280;36133;42.522;27.456;2023-06-22T00:14:22;101427.09;;;23.59;66.39
50250;BME280;36133;42.522;27.456;2023-06-22T00:16:48;101447.22;;;24.03;64.96
50250;BME280;36133;42.522;27.456;2023-06-22T00:19:15;101451.66;;;24.09;65.03
50250;BME280;36133;42.522;27.456;2023-06-22T00:21:40;101452.47;;;23.83;65.17
50250;BME280;36133;42.522;27.456;2023-06-22T00:24:07;101444.38;;;23.98;64.40
50250;BME280;36133;42.522;27.456;2023-06-22T00:26:33;101404.31;;;23.47;66.18
50250;BME280;36133;42.522;27.456;2023-06-22T00:28:58;101463.31;;;23.89;64.49
50250;BME280;36133;42.522;27.456;2023-06-22T00:31:24;101463.06;;;23.91;65.05
50250;BME280;36133;42.522;27.456;2023-06-22T00:33:49;101424.22;;;23.71;64.21
50250;BME280;36133;42.522;27.456;2023-06-22T00:36:16;101256.53;;;22.70;64.78
50250;BME280;36133;42.522;27.456;2023-06-22T00:38:43;101385.78;;;23.86;63.28
50250;BME280;36133;42.522;27.456;2023-06-22T00:41:09;101476.81;;;24.13;64.32
50250;BME280;36133;42.522;27.456;2023-06-22T00:43:34;101365.13;;;23.61;63.80
50250;BME280;36133;42.522;27.456;2023-06-22T00:46:00;101370.63;;;23.39;64.56
50250;BME280;36133;42.522;27.456;2023-06-22T00:48:26;101482.22;;;24.03;64.61
50250;BME280;36133;42.522;27.456;2023-06-22T00:50:51;101472.38;;;24.61;62.56
50250;BME280;36133;42.522;27.456;2023-06-22T00:53:20;101481.06;;;23.98;64.44
50250;BME280;36133;42.522;27.456;2023-06-22T00:55:46;101470.47;;;23.63;65.96
50250;BME280;36133;42.522;27.456;2023-06-22T00:58:13;101490.84;;;23.46;66.21
50250;BME280;36133;42.522;27.456;2023-06-22T01:00:40;101346.09;;;22.61;66.42
50250;BME280;36133;42.522;27.456;2023-06-22T01:03:06;101441.88;;;22.92;67.19
50250;BME280;36133;42.522;27.456;2023-06-22T01:05:35;101481.22;;;23.09;67.08
50250;BME280;36133;42.522;27.456;2023-06-22T01:10:43;101198.41;;;21.27;67.35
50250;BME280;36133;42.522;27.456;2023-06-22T01:15:55;101465.28;;;23.12;66.82
50250;BME280;36133;42.522;27.456;2023-06-22T01:18:23;101439.13;;;22.92;67.01
50250;BME280;36133;42.522;27.456;2023-06-22T01:20:54;101402.81;;;22.95;66.35
50250;BME280;36133;42.522;27.456;2023-06-22T01:26:20;101232.78;;;22.25;65.19
50250;BME280;36133;42.522;27.456;2023-06-22T01:28:50;101332.34;;;22.61;66.29
50250;BME280;36133;42.522;27.456;2023-06-22T01:31:20;101416.22;;;23.08;65.80
50250;BME280;36133;42.522;27.456;2023-06-22T01:33:59;101444.13;;;23.34;65.96
50250;BME280;36133;42.522;27.456;2023-06-22T01:36:26;101472.78;;;23.55;66.27
50250;BME280;36133;42.522;27.456;2023-06-22T01:38:53;101477.69;;;23.31;66.41
50250;BME280;36133;42.522;27.456;2023-06-22T01:41:25;101471.63;;;23.12;66.59
50250;BME280;36133;42.522;27.456;2023-06-22T01:43:52;101410.66;;;22.70;66.99
50250;BME280;36133;42.522;27.456;2023-06-22T01:46:18;101476.59;;;23.32;65.67
50250;BME280;36133;42.522;27.456;2023-06-22T01:48:46;101324.97;;;22.44;65.80
50250;BME280;36133;42.522;27.456;2023-06-22T01:51:12;101491.38;;;23.26;66.92
50250;BME280;36133;42.522;27.456;2023-06-22T01:53:37;101496.66;;;23.49;65.57
50250;BME280;36133;42.522;27.456;2023-06-22T01:56:03;101430.84;;;22.92;66.46
50250;BME280;36133;42.522;27.456;2023-06-22T01:58:33;101488.63;;;23.26;66.48
50250;BME280;36133;42.522;27.456;2023-06-22T02:01:12;101496.84;;;22.87;67.71
50250;BME280;36133;42.522;27.456;2023-06-22T02:03:46;101463.28;;;22.73;68.25
50250;BME280;36133;42.522;27.456;2023-06-22T02:06:31;101468.78;;;22.73;67.79
50250;BME280;36133;42.522;27.456;2023-06-22T02:09:02;101493.91;;;23.10;67.65
50250;BME280;36133;42.522;27.456;2023-06-22T02:11:31;101481.13;;;22.71;68.59
50250;BME280;36133;42.522;27.456;2023-06-22T02:13:58;101441.44;;;23.00;66.83
50250;BME280;36133;42.522;27.456;2023-06-22T02:16:23;101351.06;;;21.97;68.85
50250;BME280;36133;42.522;27.456;2023-06-22T02:18:50;101491.81;;;23.18;67.77
50250;BME280;36133;42.522;27.456;2023-06-22T02:21:19;101484.84;;;22.93;68.32
50250;BME280;36133;42.522;27.456;2023-06-22T02:23:44;101466.66;;;22.92;67.85
50250;BME280;36133;42.522;27.456;2023-06-22T02:26:10;101396.56;;;22.66;67.60
50250;BME280;36133;42.522;27.456;2023-06-22T02:28:36;101447.53;;;23.02;66.86
50250;BME280;36133;42.522;27.456;2023-06-22T02:31:01;101504.38;;;22.92;68.13
50250;BME280;36133;42.522;27.456;2023-06-22T02:33:27;101465.13;;;23.01;67.33
50250;BME280;36133;42.522;27.456;2023-06-22T02:35:52;101452.94;;;23.14;66.39
50250;BME280;36133;42.522;27.456;2023-06-22T02:38:18;101494.00;;;22.99;67.48
50250;BME280;36133;42.522;27.456;2023-06-22T02:40:45;101505.72;;;23.45;66.55
50250;BME280;36133;42.522;27.456;2023-06-22T02:43:10;101502.22;;;23.32;66.57
50250;BME280;36133;42.522;27.456;2023-06-22T02:45:36;101513.41;;;23.43;66.87
50250;BME280;36133;42.522;27.456;2023-06-22T02:48:01;101519.59;;;23.33;66.37
50250;BME280;36133;42.522;27.456;2023-06-22T02:50:27;101525.25;;;23.43;66.41
50250;BME280;36133;42.522;27.456;2023-06-22T02:52:52;101410.59;;;23.20;65.03
50250;BME280;36133;42.522;27.456;2023-06-22T02:55:18;101500.34;;;23.55;65.72
50250;BME280;36133;42.522;27.456;2023-06-22T02:57:43;101434.44;;;22.93;66.62
50250;BME280;36133;42.522;27.456;2023-06-22T03:00:12;101440.75;;;22.76;67.14
50250;BME280;36133;42.522;27.456;2023-06-22T03:02:46;101516.38;;;23.75;64.49
50250;BME280;36133;42.522;27.456;2023-06-22T03:05:12;101497.88;;;23.97;63.41
50250;BME280;36133;42.522;27.456;2023-06-22T03:07:42;101430.44;;;23.39;63.40
50250;BME280;36133;42.522;27.456;2023-06-22T03:10:12;101355.81;;;23.24;62.41
50250;BME280;36133;42.522;27.456;2023-06-22T03:12:38;101499.53;;;23.98;61.80
50250;BME280;36133;42.522;27.456;2023-06-22T03:15:08;101530.00;;;24.57;61.08
50250;BME280;36133;42.522;27.456;2023-06-22T03:17:37;101491.03;;;24.48;60.25
50250;BME280;36133;42.522;27.456;2023-06-22T03:20:04;101411.88;;;24.00;60.17
50250;BME280;36133;42.522;27.456;2023-06-22T03:22:40;101042.88;;;22.15;58.35
50250;BME280;36133;42.522;27.456;2023-06-22T03:25:09;101532.13;;;25.04;58.29
50250;BME280;36133;42.522;27.456;2023-06-22T03:27:44;101409.47;;;24.68;57.26
50250;BME280;36133;42.522;27.456;2023-06-22T03:30:11;101540.91;;;25.33;57.34
50250;BME280;36133;42.522;27.456;2023-06-22T03:32:37;101540.03;;;25.27;56.71
50250;BME280;36133;42.522;27.456;2023-06-22T03:35:03;101448.53;;;24.49;57.06
50250;BME280;36133;42.522;27.456;2023-06-22T03:37:29;101547.56;;;25.37;56.31
50250;BME280;36133;42.522;27.456;2023-06-22T03:39:54;101388.44;;;24.30;56.56
50250;BME280;36133;42.522;27.456;2023-06-22T03:42:20;101533.91;;;25.20;56.70
50250;BME280;36133;42.522;27.456;2023-06-22T03:44:46;101470.13;;;24.95;56.50
50250;BME280;36133;42.522;27.456;2023-06-22T03:47:12;101493.88;;;24.91;56.89
50250;BME280;36133;42.522;27.456;2023-06-22T03:49:38;101459.41;;;24.61;58.21
50250;BME280;36133;42.522;27.456;2023-06-22T03:52:03;101527.63;;;24.66;58.62
50250;BME280;36133;42.522;27.456;2023-06-22T03:54:30;101484.31;;;24.71;57.46
50250;BME280;36133;42.522;27.456;2023-06-22T03:56:59;101421.53;;;24.30;58.55
50250;BME280;36133;42.522;27.456;2023-06-22T03:59:25;101559.47;;;25.05;58.73
50250;BME280;36133;42.522;27.456;2023-06-22T04:01:50;101522.19;;;24.76;59.20
50250;BME280;36133;42.522;27.456;2023-06-22T04:04:17;101531.44;;;24.11;61.40
50250;BME280;36133;42.522;27.456;2023-06-22T04:06:43;101478.47;;;24.36;60.71
50250;BME280;36133;42.522;27.456;2023-06-22T04:09:08;101478.81;;;24.44;59.36
50250;BME280;36133;42.522;27.456;2023-06-22T04:11:34;101534.75;;;24.35;61.19
50250;BME280;36133;42.522;27.456;2023-06-22T04:13:59;101555.78;;;24.41;60.93
50250;BME280;36133;42.522;27.456;2023-06-22T04:16:25;101562.78;;;24.75;60.24
50250;BME280;36133;42.522;27.456;2023-06-22T04:18:51;101560.72;;;24.61;61.04
50250;BME280;36133;42.522;27.456;2023-06-22T04:21:16;101561.13;;;24.74;61.05
50250;BME280;36133;42.522;27.456;2023-06-22T04:23:42;101404.75;;;24.04;60.53
50250;BME280;36133;42.522;27.456;2023-06-22T04:26:08;101531.59;;;24.48;61.11
50250;BME280;36133;42.522;27.456;2023-06-22T04:28:34;101402.78;;;23.56;61.99
50250;BME280;36133;42.522;27.456;2023-06-22T04:31:02;101568.16;;;24.16;62.26
50250;BME280;36133;42.522;27.456;2023-06-22T04:33:28;101547.06;;;24.05;62.62
50250;BME280;36133;42.522;27.456;2023-06-22T04:35:57;101508.00;;;24.13;62.22
50250;BME280;36133;42.522;27.456;2023-06-22T04:38:24;101582.78;;;24.61;61.85
50250;BME280;36133;42.522;27.456;2023-06-22T04:40:50;101549.47;;;24.45;61.73
50250;BME280;36133;42.522;27.456;2023-06-22T04:43:16;101595.00;;;24.70;61.19
50250;BME280;36133;42.522;27.456;2023-06-22T04:45:42;101596.06;;;24.64;61.59
50250;BME280;36133;42.522;27.456;2023-06-22T04:48:07;101575.22;;;24.51;60.85
50250;BME280;36133;42.522;27.456;2023-06-22T04:50:41;101484.31;;;24.17;59.79
50250;BME280;36133;42.522;27.456;2023-06-22T04:53:07;101589.28;;;25.03;59.41
50250;BME280;36133;42.522;27.456;2023-06-22T04:55:35;101578.31;;;25.46;57.16
50250;BME280;36133;42.522;27.456;2023-06-22T04:58:03;101506.22;;;24.51;58.36
50250;BME280;36133;42.522;27.456;2023-06-22T05:00:30;101565.25;;;24.72;58.60
50250;BME280;36133;42.522;27.456;2023-06-22T05:02:56;101587.66;;;25.39;57.15
50250;BME280;36133;42.522;27.456;2023-06-22T05:05:23;101446.88;;;24.48;57.56
50250;BME280;36133;42.522;27.456;2023-06-22T05:07:50;101585.03;;;25.60;56.32
50250;BME280;36133;42.522;27.456;2023-06-22T05:10:19;101589.66;;;25.91;55.81
50250;BME280;36133;42.522;27.456;2023-06-22T05:12:45;101592.97;;;26.51;54.80
50250;BME280;36133;42.522;27.456;2023-06-22T05:15:11;101123.59;;;23.23;55.21
50250;BME280;36133;42.522;27.456;2023-06-22T05:17:37;101587.69;;;26.49;54.84
50250;BME280;36133;42.522;27.456;2023-06-22T05:20:09;101396.72;;;25.51;54.44
50250;BME280;36133;42.522;27.456;2023-06-22T05:22:38;101585.00;;;27.00;53.16
50250;BME280;36133;42.522;27.456;2023-06-22T05:25:08;101535.16;;;26.90;53.33
50250;BME280;36133;42.522;27.456;2023-06-22T05:27:34;101491.56;;;27.52;51.59
50250;BME280;36133;42.522;27.456;2023-06-22T05:30:08;101545.63;;;27.75;51.16
50250;BME280;36133;42.522;27.456;2023-06-22T05:32:34;101409.94;;;26.83;51.07
50250;BME280;36133;42.522;27.456;2023-06-22T05:35:00;101503.75;;;27.66;50.60
50250;BME280;36133;42.522;27.456;2023-06-22T05:37:25;101429.75;;;28.06;48.55
50250;BME280;36133;42.522;27.456;2023-06-22T05:39:51;101388.75;;;28.37;47.40
50250;BME280;36133;42.522;27.456;2023-06-22T05:42:17;101390.97;;;29.22;45.72
50250;BME280;36133;42.522;27.456;2023-06-22T05:44:42;101422.13;;;29.48;44.97
50250;BME280;36133;42.522;27.456;2023-06-22T05:47:08;101540.28;;;30.59;44.62
50250;BME280;36133;42.522;27.456;2023-06-22T05:49:34;101413.91;;;31.15;42.31
50250;BME280;36133;42.522;27.456;2023-06-22T05:51:59;101583.66;;;31.96;42.05
50250;BME280;36133;42.522;27.456;2023-06-22T05:54:27;101580.88;;;33.18;40.03
50250;BME280;36133;42.522;27.456;2023-06-22T05:56:52;101237.09;;;31.53;39.60
50250;BME280;36133;42.522;27.456;2023-06-22T05:59:18;101566.06;;;32.73;40.94
50250;BME280;36133;42.522;27.456;2023-06-22T06:01:44;101580.09;;;33.26;40.05
50250;BME280;36133;42.522;27.456;2023-06-22T06:04:09;101422.28;;;32.87;38.83
50250;BME280;36133;42.522;27.456;2023-06-22T06:06:35;101204.38;;;31.89;38.55
50250;BME280;36133;42.522;27.456;2023-06-22T06:09:13;101567.44;;;34.74;36.07
50250;BME280;36133;42.522;27.456;2023-06-22T06:11:39;101540.38;;;35.59;34.63
50250;BME280;36133;42.522;27.456;2023-06-22T06:14:06;101577.16;;;36.84;33.01
50250;BME280;36133;42.522;27.456;2023-06-22T06:16:32;101458.50;;;37.64;31.63
50250;BME280;36133;42.522;27.456;2023-06-22T06:18:57;101578.38;;;36.95;33.20
50250;BME280;36133;42.522;27.456;2023-06-22T06:21:23;101581.00;;;37.46;31.39
50250;BME280;36133;42.522;27.456;2023-06-22T06:23:49;101565.56;;;37.76;31.24
50250;BME280;36133;42.522;27.456;2023-06-22T06:26:15;101550.09;;;38.87;29.51
50250;BME280;36133;42.522;27.456;2023-06-22T06:28:43;101587.00;;;38.94;29.03
50250;BME280;36133;42.522;27.456;2023-06-22T06:31:09;101520.94;;;37.78;29.22
50250;BME280;36133;42.522;27.456;2023-06-22T06:33:36;101252.97;;;34.92;31.03
50250;BME280;36133;42.522;27.456;2023-06-22T06:36:04;101583.75;;;37.91;30.65
50250;BME280;36133;42.522;27.456;2023-06-22T06:38:33;101516.13;;;35.84;32.10
50250;BME280;36133;42.522;27.456;2023-06-22T06:40:59;101430.97;;;36.01;31.80
50250;BME280;36133;42.522;27.456;2023-06-22T06:43:24;101445.66;;;35.98;31.68
50250;BME280;36133;42.522;27.456;2023-06-22T06:45:53;101453.28;;;36.18;30.78
50250;BME280;36133;42.522;27.456;2023-06-22T06:48:19;101209.75;;;34.17;31.80
50250;BME280;36133;42.522;27.456;2023-06-22T06:50:44;101445.00;;;36.43;30.93
50250;BME280;36133;42.522;27.456;2023-06-22T06:53:13;101204.56;;;35.79;28.65
50250;BME280;36133;42.522;27.456;2023-06-22T06:55:38;101213.44;;;36.47;27.27
50250;BME280;36133;42.522;27.456;2023-06-22T06:58:04;101452.75;;;37.61;27.35
50250;BME280;36133;42.522;27.456;2023-06-22T07:00:33;101368.84;;;37.54;25.96
50250;BME280;36133;42.522;27.456;2023-06-22T07:02:58;101518.22;;;37.33;27.73
50250;BME280;36133;42.522;27.456;2023-06-22T07:05:24;101444.53;;;37.31;26.65
50250;BME280;36133;42.522;27.456;2023-06-22T07:07:50;101377.47;;;38.26;25.16
50250;BME280;36133;42.522;27.456;2023-06-22T07:10:18;101405.94;;;38.08;26.01
50250;BME280;36133;42.522;27.456;2023-06-22T07:12:44;101575.19;;;39.05;25.76
50250;BME280;36133;42.522;27.456;2023-06-22T07:15:10;101387.38;;;37.55;26.00
50250;BME280;36133;42.522;27.456;2023-06-22T07:17:45;101367.25;;;38.49;25.00
50250;BME280;36133;42.522;27.456;2023-06-22T07:20:24;101575.31;;;40.19;24.88
50250;BME280;36133;42.522;27.456;2023-06-22T07:22:58;101356.19;;;38.88;24.49
50250;BME280;36133;42.522;27.456;2023-06-22T07:25:36;101247.16;;;38.80;23.95
50250;BME280;36133;42.522;27.456;2023-06-22T07:28:14;101242.91;;;37.95;24.84
50250;BME280;36133;42.522;27.456;2023-06-22T07:30:42;101347.44;;;41.02;22.22
50250;BME280;36133;42.522;27.456;2023-06-22T07:33:20;101475.81;;;42.12;21.96
50250;BME280;36133;42.522;27.456;2023-06-22T07:35:51;101120.03;;;41.65;20.98
50250;BME280;36133;42.522;27.456;2023-06-22T07:38:17;101494.31;;;45.82;19.06
50250;BME280;36133;42.522;27.456;2023-06-22T07:40:43;101519.56;;;45.09;19.88
50250;BME280;36133;42.522;27.456;2023-06-22T07:43:12;101280.47;;;42.92;20.33
50250;BME280;36133;42.522;27.456;2023-06-22T07:45:38;101553.25;;;43.10;21.83
50250;BME280;36133;42.522;27.456;2023-06-22T07:48:06;101156.88;;;41.28;20.79
50250;BME280;36133;42.522;27.456;2023-06-22T07:50:32;101441.38;;;42.81;20.93
50250;BME280;36133;42.522;27.456;2023-06-22T07:52:58;101555.03;;;45.36;19.34
50250;BME280;36133;42.522;27.456;2023-06-22T07:55:23;101218.41;;;41.31;20.42
50250;BME280;36133;42.522;27.456;2023-06-22T07:57:51;101446.22;;;43.72;20.47
50250;BME280;36133;42.522;27.456;2023-06-22T08:00:26;101431.97;;;43.14;20.42
50250;BME280;36133;42.522;27.456;2023-06-22T08:02:55;101534.25;;;45.64;18.28
50250;BME280;36133;42.522;27.456;2023-06-22T08:05:21;101284.47;;;41.39;21.54
50250;BME280;36133;42.522;27.456;2023-06-22T08:07:47;101416.56;;;43.15;21.25
50250;BME280;36133;42.522;27.456;2023-06-22T08:10:14;101326.03;;;41.91;21.84
50250;BME280;36133;42.522;27.456;2023-06-22T08:12:40;101290.13;;;39.98;23.35
50250;BME280;36133;42.522;27.456;2023-06-22T08:15:06;101196.25;;;39.66;22.94
50250;BME280;36133;42.522;27.456;2023-06-22T08:17:40;101552.94;;;41.95;22.44
50250;BME280;36133;42.522;27.456;2023-06-22T08:20:06;101428.72;;;38.72;25.14
50250;BME280;36133;42.522;27.456;2023-06-22T08:22:35;101435.50;;;39.30;24.41
50250;BME280;36133;42.522;27.456;2023-06-22T08:25:02;101355.94;;;38.05;25.29
50250;BME280;36133;42.522;27.456;2023-06-22T08:27:30;101437.66;;;39.52;24.29
50250;BME280;36133;42.522;27.456;2023-06-22T08:29:59;101268.81;;;38.00;24.69
50250;BME280;36133;42.522;27.456;2023-06-22T08:32:28;101461.81;;;39.66;24.05
50250;BME280;36133;42.522;27.456;2023-06-22T08:34:55;101546.25;;;41.15;22.86
50250;BME280;36133;42.522;27.456;2023-06-22T08:37:24;101364.19;;;40.46;22.79
50250;BME280;36133;42.522;27.456;2023-06-22T08:40:02;101466.19;;;40.72;23.28
50250;BME280;36133;42.522;27.456;2023-06-22T08:42:30;101126.19;;;38.43;23.18
50250;BME280;36133;42.522;27.456;2023-06-22T08:44:59;101204.75;;;37.41;25.08
50250;BME280;36133;42.522;27.456;2023-06-22T08:47:28;101423.19;;;41.09;22.56
50250;BME280;36133;42.522;27.456;2023-06-22T08:49:54;101328.38;;;40.99;22.21
50250;BME280;36133;42.522;27.456;2023-06-22T08:52:21;101162.59;;;40.75;20.83
50250;BME280;36133;42.522;27.456;2023-06-22T08:54:49;101431.84;;;39.61;23.83
50250;BME280;36133;42.522;27.456;2023-06-22T08:57:38;101474.88;;;38.51;24.94
50250;BME280;36133;42.522;27.456;2023-06-22T09:00:08;101151.97;;;35.13;27.15
50250;BME280;36133;42.522;27.456;2023-06-22T09:02:48;101550.94;;;39.32;25.32
50250;BME280;36133;42.522;27.456;2023-06-22T09:05:14;101545.75;;;40.70;23.79
50250;BME280;36133;42.522;27.456;2023-06-22T09:07:43;101399.19;;;41.03;22.62
50250;BME280;36133;42.522;27.456;2023-06-22T09:10:09;101567.53;;;43.20;21.39
50250;BME280;36133;42.522;27.456;2023-06-22T09:12:35;101198.91;;;40.69;21.84
50250;BME280;36133;42.522;27.456;2023-06-22T09:15:03;101502.69;;;42.22;22.44
50250;BME280;36133;42.522;27.456;2023-06-22T09:17:29;101430.81;;;38.31;26.78
50250;BME280;36133;42.522;27.456;2023-06-22T09:20:01;101438.50;;;38.90;26.16
50250;BME280;36133;42.522;27.456;2023-06-22T09:22:28;101416.31;;;39.20;26.29
50250;BME280;36133;42.522;27.456;2023-06-22T09:24:55;101454.63;;;41.04;24.51
50250;BME280;36133;42.522;27.456;2023-06-22T09:27:21;101162.69;;;37.20;26.37
50250;BME280;36133;42.522;27.456;2023-06-22T09:29:48;101513.69;;;40.08;25.77
50250;BME280;36133;42.522;27.456;2023-06-22T09:32:13;101274.84;;;39.09;25.20
50250;BME280;36133;42.522;27.456;2023-06-22T09:34:39;101473.69;;;40.64;24.97
50250;BME280;36133;42.522;27.456;2023-06-22T09:37:05;101568.06;;;42.92;23.56
50250;BME280;36133;42.522;27.456;2023-06-22T09:39:33;101420.19;;;41.74;24.02
50250;BME280;36133;42.522;27.456;2023-06-22T09:41:59;101214.84;;;40.55;23.75
50250;BME280;36133;42.522;27.456;2023-06-22T09:44:25;101578.47;;;43.59;23.10
50250;BME280;36133;42.522;27.456;2023-06-22T09:46:51;101485.41;;;44.04;22.25
50250;BME280;36133;42.522;27.456;2023-06-22T09:49:17;101449.47;;;42.45;23.53
50250;BME280;36133;42.522;27.456;2023-06-22T09:51:46;101392.97;;;44.81;21.10
50250;BME280;36133;42.522;27.456;2023-06-22T09:54:11;101445.50;;;45.23;20.97
50250;BME280;36133;42.522;27.456;2023-06-22T09:56:37;101239.00;;;42.29;22.98
50250;BME280;36133;42.522;27.456;2023-06-22T09:59:03;101574.16;;;42.31;24.98
50250;BME280;36133;42.522;27.456;2023-06-22T10:01:31;101169.56;;;39.24;25.77
50250;BME280;36133;42.522;27.456;2023-06-22T10:04:02;101577.06;;;43.35;24.34
50250;BME280;36133;42.522;27.456;2023-06-22T10:06:28;101414.31;;;40.87;25.90
50250;BME280;36133;42.522;27.456;2023-06-22T10:08:55;101189.31;;;39.24;26.12
50250;BME280;36133;42.522;27.456;2023-06-22T10:11:20;101335.75;;;41.60;25.09
50250;BME280;36133;42.522;27.456;2023-06-22T10:13:52;101246.28;;;39.11;27.07
50250;BME280;36133;42.522;27.456;2023-06-22T10:16:17;101180.38;;;38.05;27.97
50250;BME280;36133;42.522;27.456;2023-06-22T10:18:46;101441.91;;;41.40;25.95
50250;BME280;36133;42.522;27.456;2023-06-22T10:21:12;101457.69;;;40.72;26.93
50250;BME280;36133;42.522;27.456;2023-06-22T10:23:37;101450.06;;;40.76;26.49
50250;BME280;36133;42.522;27.456;2023-06-22T10:26:03;101327.03;;;38.52;27.63
50250;BME280;36133;42.522;27.456;2023-06-22T10:28:36;101394.91;;;39.70;26.77
50250;BME280;36133;42.522;27.456;2023-06-22T10:31:02;101377.47;;;42.20;23.87
50250;BME280;36133;42.522;27.456;2023-06-22T10:33:27;101562.66;;;44.89;21.98
50250;BME280;36133;42.522;27.456;2023-06-22T10:36:01;101463.59;;;42.08;23.05
50250;BME280;36133;42.522;27.456;2023-06-22T10:38:29;101236.19;;;42.36;21.59
50250;BME280;36133;42.522;27.456;2023-06-22T10:41:15;101564.34;;;44.18;21.13
50250;BME280;36133;42.522;27.456;2023-06-22T10:43:58;101173.44;;;42.45;20.54
50250;BME280;36133;42.522;27.456;2023-06-22T10:46:26;101331.91;;;41.72;21.66
50250;BME280;36133;42.522;27.456;2023-06-22T10:48:53;101296.91;;;42.68;21.16
50250;BME280;36133;42.522;27.456;2023-06-22T10:51:20;101526.41;;;43.04;21.77
50250;BME280;36133;42.522;27.456;2023-06-22T10:53:46;101553.34;;;41.97;22.78
50250;BME280;36133;42.522;27.456;2023-06-22T10:56:11;101410.09;;;43.21;20.94
50250;BME280;36133;42.522;27.456;2023-06-22T10:58:37;101518.13;;;43.28;21.35
50250;BME280;36133;42.522;27.456;2023-06-22T11:01:06;101400.25;;;43.08;20.50
50250;BME280;36133;42.522;27.456;2023-06-22T11:03:34;101290.47;;;39.03;24.20
50250;BME280;36133;42.522;27.456;2023-06-22T11:05:59;101273.31;;;41.23;21.77
50250;BME280;36133;42.522;27.456;2023-06-22T11:08:35;101383.97;;;42.57;20.83
50250;BME280;36133;42.522;27.456;2023-06-22T11:11:07;101314.47;;;43.40;18.94
50250;BME280;36133;42.522;27.456;2023-06-22T11:13:35;101366.13;;;42.20;20.44
50250;BME280;36133;42.522;27.456;2023-06-22T11:16:03;101523.75;;;44.24;19.63
50250;BME280;36133;42.522;27.456;2023-06-22T11:18:31;101453.56;;;42.85;20.35
50250;BME280;36133;42.522;27.456;2023-06-22T11:20:58;101510.84;;;43.75;20.58
50250;BME280;36133;42.522;27.456;2023-06-22T11:23:28;101360.34;;;44.25;19.58
50250;BME280;36133;42.522;27.456;2023-06-22T11:25:56;101468.19;;;41.63;21.96
50250;BME280;36133;42.522;27.456;2023-06-22T11:28:22;101545.66;;;43.24;22.26
50250;BME280;36133;42.522;27.456;2023-06-22T11:30:48;101407.97;;;42.30;22.36
50250;BME280;36133;42.522;27.456;2023-06-22T11:33:18;101319.88;;;43.66;20.59
50250;BME280;36133;42.522;27.456;2023-06-22T11:35:49;101370.69;;;42.68;21.46
50250;BME280;36133;42.522;27.456;2023-06-22T11:38:17;101384.31;;;43.41;21.57
50250;BME280;36133;42.522;27.456;2023-06-22T11:40:43;101444.38;;;43.43;21.36
50250;BME280;36133;42.522;27.456;2023-06-22T11:43:11;101287.16;;;40.10;24.34
50250;BME280;36133;42.522;27.456;2023-06-22T11:45:37;101531.97;;;42.93;23.20
50250;BME280;36133;42.522;27.456;2023-06-22T11:48:03;101253.16;;;41.92;21.94
50250;BME280;36133;42.522;27.456;2023-06-22T11:50:40;101531.56;;;43.76;22.27
50250;BME280;36133;42.522;27.456;2023-06-22T11:53:06;101275.25;;;41.19;22.40
50250;BME280;36133;42.522;27.456;2023-06-22T11:55:31;101412.72;;;41.36;23.42
50250;BME280;36133;42.522;27.456;2023-06-22T11:57:58;101540.97;;;42.08;23.16
50250;BME280;36133;42.522;27.456;2023-06-22T12:00:29;101536.34;;;41.70;24.46
50250;BME280;36133;42.522;27.456;2023-06-22T12:02:55;101498.53;;;42.16;23.99
50250;BME280;36133;42.522;27.456;2023-06-22T12:05:21;101246.75;;;42.87;21.24
50250;BME280;36133;42.522;27.456;2023-06-22T12:07:48;101504.34;;;47.10;18.80
50250;BME280;36133;42.522;27.456;2023-06-22T12:10:14;101371.00;;;46.37;18.46
50250;BME280;36133;42.522;27.456;2023-06-22T12:12:39;101527.13;;;42.97;22.65
50250;BME280;36133;42.522;27.456;2023-06-22T12:15:05;101107.34;;;40.05;23.87
50250;BME280;36133;42.522;27.456;2023-06-22T12:17:32;101517.56;;;45.31;20.70
50250;BME280;36133;42.522;27.456;2023-06-22T12:20:00;101373.75;;;44.28;20.84
50250;BME280;36133;42.522;27.456;2023-06-22T12:22:27;101120.22;;;41.09;21.45
50250;BME280;36133;42.522;27.456;2023-06-22T12:24:53;101079.50;;;39.39;23.18
50250;BME280;36133;42.522;27.456;2023-06-22T12:27:27;101100.34;;;41.76;21.46
50250;BME280;36133;42.522;27.456;2023-06-22T12:30:01;101108.34;;;39.71;22.83
50250;BME280;36133;42.522;27.456;2023-06-22T12:32:27;101181.38;;;43.56;19.57
50250;BME280;36133;42.522;27.456;2023-06-22T12:35:11;101090.97;;;40.97;21.58
50250;BME280;36133;42.522;27.456;2023-06-22T12:37:45;101318.81;;;44.10;19.67
50250;BME280;36133;42.522;27.456;2023-06-22T12:40:11;101124.72;;;41.84;20.59
50250;BME280;36133;42.522;27.456;2023-06-22T12:42:37;101397.16;;;43.86;20.43
50250;BME280;36133;42.522;27.456;2023-06-22T12:45:04;101516.44;;;43.68;20.63
50250;BME280;36133;42.522;27.456;2023-06-22T12:47:31;101369.13;;;42.75;21.63
50250;BME280;36133;42.522;27.456;2023-06-22T12:49:56;101337.47;;;42.32;21.32
50250;BME280;36133;42.522;27.456;2023-06-22T12:52:22;101130.97;;;41.26;21.06